LFRULFRN

Guest
Details From LFRU - Morlaix Ploujean
To LFRN - Rennes St Jacques
Flight Number -
Tags generated
Created
Modified
Stats Distance 89 nm / 165 km
Max Altitude 100 ft / 30 m
Waypoints 3
Social Downloads 10
Likes 0
Share VATSIM

Download

Looking for another format? Having issues loading an existing format? Contact us
Advertisement - Login to hide

Notes

Basic altitude profile: - Ascent Rate: 2000ft/min - Ascent Speed: 190kts - Cruise Altitude: 12000ft - Cruise Speed: 220kts - Descent Rate: 1500ft/min - Descent Speed: 200kts

Route

LFRU REN LFRN

ID Type Via Altitude Latitude Longitude Leg Dist Tot Dist Heading (true) Name
O LFRU APT - 0 ft / 0 m 48.60324˚ -3.81586˚ - 0 nm - Morlaix Ploujean
REN VOR - 100 ft / 30 m 48.06925˚ -1.74167˚ 88 nm 88 nm 110° / 112° RENNES SAINT JACQUES VOR-DME
O LFRN APT - 0 ft / 0 m 48.06941˚ -1.73459˚ 0 nm 89 nm 88° / 88° Rennes St Jacques

Altitude Profile

Advertisement - Login to hide

LFRU

Details ICAO LFRU (MXN)
Name Morlaix Ploujean
Region France
Timezone Europe/Paris (UTC+2.0)
Stats Elevation 277 ft / 84 m (AMSL)
Location 48.603238° -3.815856°
Runways 1
Magnetic Variation 1.324° W

METAR

LFRU 241600Z AUTO 02009KT 350V050 9000 FEW014 17/12 Q1017

Decode

TAF

Not found

Departure Runways

ID Width Length Bearing (true) Bearing (mag) Surface Threshold Offset Overrun Length
04 121 ft / 37 m 5,299 ft / 1,615 m 40.00° 41.32° Asphalt 459 ft / 140 m 0 ft / 0 m
22 121 ft / 37 m 5,299 ft / 1,615 m 220.01° 221.33° Asphalt 0 ft / 0 m 0 ft / 0 m

LFRN

Details ICAO LFRN (RNS)
Name Rennes St Jacques
Region France
Timezone Europe/Paris (UTC+2.0)
Stats Elevation 124 ft / 38 m (AMSL)
Location 48.069410° -1.734587°
Runways 2
Magnetic Variation 0.573° W

METAR

LFRN 241600Z AUTO 04007KT 9999 FEW044/// BKN054/// BKN072/// ///CB 22/14 Q1016 TEMPO 4000 TSRA

Decode

TAF

TAF LFRN 241100Z 2412/2512 33005KT 9999 SCT030 PROB40 TEMPO 2412/2420 4000 TSRA BKN030CB BECMG 2416/2418 36010KT BECMG 2420/2422 33005KT BECMG 2500/2502 3000 BR BKN003 BECMG 2506/2508 9999 NSW BKN008 BECMG 2508/2510 SCT020

Decode

Destination Runways

ID Width Length Bearing (true) Bearing (mag) Surface Threshold Offset Overrun Length
10 148 ft / 45 m 6,895 ft / 2,102 m 100.76° 101.33° Asphalt 230 ft / 70 m 0 ft / 0 m
14 98 ft / 30 m 2,785 ft / 849 m 142.19° 142.76° Asphalt 0 ft / 0 m 0 ft / 0 m
28 148 ft / 45 m 6,895 ft / 2,102 m 280.78° 281.35° Asphalt 0 ft / 0 m 0 ft / 0 m
32 98 ft / 30 m 2,785 ft / 849 m 322.20° 322.77° Asphalt 0 ft / 0 m 0 ft / 0 m

Approach Navaids

Runway Type Ident Frequency Range Bearing (true) Bearing (mag) Slope Elevation
28 Localiser RS 110.10 MHz 18 nm / 33 km 280.72° 281.29° - 124 ft / 38 m (AMSL)
28 Glidescope RS 110.10 MHz 10 nm / 19 km 280.77° 281.34° 3.00° 124 ft / 38 m (AMSL)
28 DME RS 110.10 MHz 18 nm / 33 km - - - 174 ft / 53 m (AMSL)

Popular Alternatives